Time;durP1;ratioP1;P1;durP2;ratioP2;P2;SDS_P1;SDS_P2;PMS_P1;PMS_P2;Temp;Humidity;BMP_temperature;BMP_pressure;BME280_temperature;BME280_humidity;BME280_pressure;Samples;Min_cycle;Max_cycle;Signal;HPM_P1;HPM_P2
2024/01/21 00:01:58;;;;;;;10.27;6.47;;;;;;;3.81;53.10;102340.75;4946717;29;20107;-67
2024/01/21 00:04:26;;;;;;;12.10;6.22;;;;;;;3.79;53.38;102324.94;4957105;29;20079;-67
2024/01/21 00:06:54;;;;;;;9.98;5.80;;;;;;;3.78;53.08;102317.09;4945006;29;20056;-67
2024/01/21 00:09:23;;;;;;;10.43;6.05;;;;;;;3.79;53.68;102316.13;4948018;29;20150;-67
2024/01/21 00:11:51;;;;;;;13.27;6.18;;;;;;;3.76;52.89;102316.41;4948055;29;20055;-67
2024/01/21 00:14:19;;;;;;;12.57;6.68;;;;;;;3.77;53.11;102315.44;4942458;29;20099;-67
2024/01/21 00:16:47;;;;;;;9.63;5.95;;;;;;;3.76;52.81;102298.63;4958939;29;20082;-67
2024/01/21 00:19:15;;;;;;;10.25;6.30;;;;;;;3.76;52.65;102303.94;4962947;29;20051;-67
2024/01/21 00:21:43;;;;;;;13.15;5.80;;;;;;;3.75;53.18;102298.78;4957411;29;20047;-67
2024/01/21 00:24:10;;;;;;;13.55;5.82;;;;;;;3.75;53.40;102302.28;4947298;29;20084;-67
2024/01/21 00:26:40;;;;;;;10.80;6.60;;;;;;;3.75;52.46;102296.13;4949913;29;20115;-67
2024/01/21 00:29:10;;;;;;;11.90;6.97;;;;;;;3.73;52.54;102290.94;4945735;29;20051;-67
2024/01/21 00:31:38;;;;;;;13.63;7.47;;;;;;;3.72;52.80;102283.94;4946774;29;20051;-67
2024/01/21 00:34:05;;;;;;;11.65;5.97;;;;;;;3.70;52.81;102282.41;4951673;29;20048;-66
2024/01/21 00:36:33;;;;;;;11.88;6.57;;;;;;;3.70;52.45;102285.06;4946931;29;20083;-67
2024/01/21 00:39:01;;;;;;;10.02;6.07;;;;;;;3.68;52.28;102282.56;4953068;29;20143;-67
2024/01/21 00:41:29;;;;;;;11.93;6.68;;;;;;;3.67;52.81;102272.06;4944463;29;20052;-67
2024/01/21 00:43:58;;;;;;;10.20;5.82;;;;;;;3.67;53.13;102267.59;4940907;29;20055;-67
2024/01/21 00:46:26;;;;;;;12.95;6.40;;;;;;;3.67;52.18;102264.09;4948094;29;20098;-67
2024/01/21 00:48:54;;;;;;;11.77;6.47;;;;;;;3.65;52.18;102266.88;4947096;29;20056;-66
2024/01/21 00:51:22;;;;;;;10.75;6.10;;;;;;;3.66;52.61;102273.03;4941618;29;20047;-67
2024/01/21 00:53:50;;;;;;;11.93;6.55;;;;;;;3.66;52.92;102265.06;4958566;28;20154;-67
2024/01/21 00:56:17;;;;;;;11.23;6.38;;;;;;;3.65;52.21;102266.03;4963977;28;20126;-67
2024/01/21 00:58:45;;;;;;;11.63;6.38;;;;;;;3.63;52.40;102265.34;4950771;29;20059;-67
2024/01/21 01:01:14;;;;;;;10.20;6.30;;;;;;;3.62;52.71;102264.50;4964454;29;20055;-67
2024/01/21 01:03:44;;;;;;;11.30;6.65;;;;;;;3.60;52.85;102258.50;4962949;28;20115;-67
2024/01/21 01:06:14;;;;;;;10.02;5.95;;;;;;;3.60;51.92;102256.69;4964226;29;20150;-67
2024/01/21 01:08:42;;;;;;;11.05;6.32;;;;;;;3.60;52.58;102242.53;4960630;29;20114;-67
2024/01/21 01:11:10;;;;;;;10.80;6.45;;;;;;;3.58;52.59;102245.34;4957718;29;20055;-67
2024/01/21 01:13:37;;;;;;;10.32;5.75;;;;;;;3.52;51.67;102231.78;4969115;28;20109;-67
2024/01/21 01:16:06;;;;;;;10.32;6.35;;;;;;;3.57;52.54;102238.34;4963820;28;20043;-67
2024/01/21 01:18:35;;;;;;;9.77;6.10;;;;;;;3.56;51.96;102227.84;4966556;28;20614;-67
2024/01/21 01:21:03;;;;;;;10.02;6.28;;;;;;;3.55;51.93;102227.03;4962789;29;20086;-67
2024/01/21 01:23:31;;;;;;;9.15;5.55;;;;;;;3.55;51.83;102227.03;4965884;29;20085;-67
2024/01/21 01:25:59;;;;;;;11.10;6.28;;;;;;;3.55;52.29;102215.56;4963999;29;20102;-67
2024/01/21 01:28:27;;;;;;;9.43;5.55;;;;;;;3.55;51.79;102212.91;4957665;28;20051;-67
2024/01/21 01:30:54;;;;;;;10.65;6.13;;;;;;;3.54;52.17;102200.59;4962330;29;20055;-67
2024/01/21 01:33:22;;;;;;;10.27;5.57;;;;;;;3.53;52.54;102191.78;4950605;29;20047;-67
2024/01/21 01:35:52;;;;;;;10.38;5.88;;;;;;;3.53;52.56;102190.94;4964714;29;20114;-67
2024/01/21 01:38:19;;;;;;;10.05;5.07;;;;;;;3.51;52.71;102185.75;4958727;29;20056;-67
2024/01/21 01:40:47;;;;;;;9.25;5.10;;;;;;;3.51;52.60;102185.75;4960513;29;20089;-67
2024/01/21 01:43:15;;;;;;;10.68;5.38;;;;;;;3.52;51.85;102176.81;4959403;29;20043;-67
2024/01/21 01:45:43;;;;;;;11.27;5.93;;;;;;;3.52;51.76;102178.63;4957591;29;20051;-67
2024/01/21 01:48:10;;;;;;;11.02;6.28;;;;;;;3.50;52.58;102173.47;4964239;29;20058;-67
2024/01/21 01:50:38;;;;;;;16.90;6.05;;;;;;;3.49;51.75;102163.81;4958306;29;20059;-67
2024/01/21 01:53:08;;;;;;;9.20;5.03;;;;;;;3.50;52.89;102161.97;4966104;29;20153;-67
2024/01/21 01:55:37;;;;;;;10.32;5.55;;;;;;;3.49;52.53;102152.34;4948177;29;20138;-68
2024/01/21 01:58:05;;;;;;;11.57;5.28;;;;;;;3.48;52.03;102142.69;4939936;29;20051;-67
2024/01/21 02:00:33;;;;;;;8.77;5.35;;;;;;;3.48;52.23;102146.19;4944181;29;20103;-67
2024/01/21 02:03:02;;;;;;;8.00;5.18;;;;;;;3.47;52.42;102149.81;4957757;29;20051;-67
2024/01/21 02:05:30;;;;;;;8.90;4.97;;;;;;;3.46;52.48;102150.84;4943411;29;20048;-67
2024/01/21 02:07:57;;;;;;;10.70;5.53;;;;;;;3.37;52.76;102134.91;4945784;29;20115;-67
2024/01/21 02:10:29;;;;;;;8.32;5.18;;;;;;;3.45;52.76;102143.84;4944139;29;20119;-67
2024/01/21 02:12:57;;;;;;;11.43;5.43;;;;;;;3.39;52.53;102135.59;4943427;29;20060;-68
2024/01/21 02:15:25;;;;;;;8.15;4.97;;;;;;;3.44;51.81;102130.69;4946037;29;20059;-67
2024/01/21 02:17:53;;;;;;;10.43;5.35;;;;;;;3.43;52.06;102129.88;4939901;29;20073;-68
2024/01/21 02:20:21;;;;;;;12.40;5.30;;;;;;;3.43;52.22;102129.88;4933752;29;20060;-67
2024/01/21 02:22:49;;;;;;;8.65;5.03;;;;;;;3.43;52.32;102118.41;4945261;29;20071;-68
2024/01/21 02:25:18;;;;;;;11.43;4.68;;;;;;;3.42;53.17;102109.59;4937240;29;20044;-68
2024/01/21 02:27:46;;;;;;;10.80;5.32;;;;;;;3.42;51.83;102109.59;4939433;29;20180;-68
2024/01/21 02:30:14;;;;;;;9.85;5.15;;;;;;;3.42;52.62;102108.75;4942375;29;20055;-67
2024/01/21 02:32:42;;;;;;;10.32;5.05;;;;;;;3.42;52.17;102112.25;4936387;29;20062;-68
2024/01/21 02:35:10;;;;;;;9.55;5.03;;;;;;;3.41;52.91;102086.66;4943228;29;20112;-68
2024/01/21 02:37:38;;;;;;;8.68;4.97;;;;;;;3.40;52.67;102086.78;4942660;29;20055;-68
2024/01/21 02:40:07;;;;;;;7.68;4.78;;;;;;;3.41;52.61;102075.19;4937286;29;20048;-67
2024/01/21 02:42:36;;;;;;;10.48;4.25;;;;;;;3.41;52.97;102062.72;4942228;29;20049;-67
2024/01/21 02:45:05;;;;;;;9.82;5.10;;;;;;;3.40;52.86;102063.72;4946182;29;20126;-67
2024/01/21 02:47:32;;;;;;;10.05;4.35;;;;;;;3.38;52.67;102056.88;4941413;29;20047;-67
2024/01/21 02:50:00;;;;;;;6.72;3.78;;;;;;;3.40;52.05;102052.25;4933361;29;20118;-67
2024/01/21 02:52:28;;;;;;;5.80;4.20;;;;;;;3.39;52.40;102061.22;4945157;29;20055;-67
2024/01/21 02:54:57;;;;;;;7.95;4.57;;;;;;;3.39;52.73;102053.22;4945868;28;20070;-67
2024/01/21 02:57:25;;;;;;;7.60;4.22;;;;;;;3.41;53.38;102051.28;4932353;29;20119;-67
2024/01/21 02:59:54;;;;;;;7.28;4.20;;;;;;;3.41;53.02;102049.44;4954114;29;20056;-67
2024/01/21 03:02:22;;;;;;;7.40;4.22;;;;;;;3.41;52.97;102052.09;4941873;29;20106;-67
2024/01/21 03:04:49;;;;;;;10.27;4.80;;;;;;;3.42;53.34;102063.56;4945022;29;20661;-67
2024/01/21 03:07:17;;;;;;;7.05;3.97;;;;;;;3.43;52.41;102062.59;4942940;29;20087;-67
2024/01/21 03:09:45;;;;;;;7.38;4.13;;;;;;;3.43;53.07;102054.63;4953573;29;20116;-68
2024/01/21 03:12:13;;;;;;;6.53;3.92;;;;;;;3.42;52.85;102059.09;4941811;29;20056;-67
2024/01/21 03:14:41;;;;;;;8.57;4.22;;;;;;;3.43;52.69;102058.13;4944954;29;20110;-67
2024/01/21 03:17:10;;;;;;;7.28;4.25;;;;;;;3.43;52.79;102041.34;4948458;29;20095;-67
2024/01/21 03:19:38;;;;;;;6.60;3.78;;;;;;;3.42;52.12;102037.00;4938244;29;20059;-67
2024/01/21 03:22:06;;;;;;;5.60;3.38;;;;;;;3.42;52.79;102024.56;4943467;29;20143;-67
2024/01/21 03:24:33;;;;;;;6.65;3.55;;;;;;;3.44;52.64;102014.63;4943785;29;20072;-67
2024/01/21 03:27:01;;;;;;;6.57;3.80;;;;;;;3.44;52.98;102021.75;4944883;29;20173;-67
2024/01/21 03:29:29;;;;;;;5.95;3.72;;;;;;;3.44;53.24;102027.06;4947836;29;20063;-67
2024/01/21 03:31:57;;;;;;;6.07;3.25;;;;;;;3.45;52.86;102034.88;4947874;29;20060;-67
2024/01/21 03:34:26;;;;;;;6.50;3.20;;;;;;;3.45;52.41;102036.72;4952537;29;20047;-67
2024/01/21 03:36:54;;;;;;;6.97;4.10;;;;;;;3.46;53.00;102039.22;4947136;29;20124;-67
2024/01/21 03:39:22;;;;;;;6.03;3.30;;;;;;;3.45;53.27;102039.38;4948655;29;20054;-67
2024/01/21 03:41:50;;;;;;;5.28;3.10;;;;;;;3.45;52.86;102029.56;4945743;29;20524;-67
2024/01/21 03:44:17;;;;;;;5.47;3.47;;;;;;;3.44;52.84;102019.09;4945115;29;20508;-67
2024/01/21 03:46:45;;;;;;;5.93;3.08;;;;;;;3.44;52.81;102025.25;4943666;29;20048;-67
2024/01/21 03:49:13;;;;;;;5.57;3.00;;;;;;;3.43;52.26;102028.88;4945089;29;20058;-67
2024/01/21 03:51:42;;;;;;;8.88;3.70;;;;;;;3.43;52.98;102031.53;4945503;29;20048;-68
2024/01/21 03:54:10;;;;;;;5.55;3.13;;;;;;;3.41;52.17;102024.69;4954361;28;20071;-67
2024/01/21 03:56:38;;;;;;;6.13;2.80;;;;;;;3.44;52.94;102025.25;4965514;28;20757;-67
2024/01/21 03:59:05;;;;;;;6.53;3.33;;;;;;;3.42;52.38;102024.56;4966466;29;20055;-67
2024/01/21 04:01:33;;;;;;;5.28;3.20;;;;;;;3.44;52.46;102025.25;4957285;29;20051;-68
2024/01/21 04:04:01;;;;;;;6.88;3.40;;;;;;;3.44;52.77;102003.97;4963460;28;20069;-68
2024/01/21 04:06:29;;;;;;;4.68;3.15;;;;;;;3.44;53.01;101990.69;4966247;28;20081;-68
2024/01/21 04:08:58;;;;;;;5.00;2.90;;;;;;;3.44;52.85;101995.19;4964476;29;20051;-68
2024/01/21 04:11:26;;;;;;;6.90;3.60;;;;;;;3.44;52.41;101974.75;4966612;29;20054;-68
2024/01/21 04:13:54;;;;;;;8.57;4.20;;;;;;;3.43;52.67;101964.28;4964176;29;20074;-68
2024/01/21 04:16:22;;;;;;;6.78;2.92;;;;;;;3.43;53.11;101962.44;4966978;29;20063;-68
2024/01/21 04:18:50;;;;;;;5.65;3.40;;;;;;;3.43;53.32;101964.28;4966370;29;20553;-68
2024/01/21 04:21:18;;;;;;;5.70;2.95;;;;;;;3.41;52.81;101969.72;4964043;28;20059;-68
2024/01/21 04:23:46;;;;;;;6.03;3.30;;;;;;;3.42;52.82;101979.38;4966817;28;20139;-68
2024/01/21 04:26:16;;;;;;;7.28;3.38;;;;;;;3.43;53.14;101990.84;4961071;29;20087;-68
2024/01/21 04:28:43;;;;;;;7.60;3.38;;;;;;;3.43;52.94;101977.56;4958688;28;20619;-67
2024/01/21 04:31:11;;;;;;;7.13;3.33;;;;;;;3.38;52.58;101969.19;4963277;29;20066;-67
2024/01/21 04:33:39;;;;;;;5.28;3.35;;;;;;;3.43;52.32;101975.72;4965025;29;20051;-67
2024/01/21 04:36:08;;;;;;;5.43;3.00;;;;;;;3.43;53.40;101970.41;4966189;29;20053;-67
2024/01/21 04:38:36;;;;;;;6.55;3.83;;;;;;;3.45;53.49;101962.31;4965618;29;20090;-68
2024/01/21 04:41:04;;;;;;;5.20;3.28;;;;;;;3.46;53.44;101958.66;4958708;29;20083;-68
2024/01/21 04:43:33;;;;;;;5.45;3.40;;;;;;;3.46;53.09;101935.59;4963194;29;20102;-68
2024/01/21 04:46:01;;;;;;;6.72;3.67;;;;;;;3.46;53.29;101927.59;4963882;29;20051;-68
2024/01/21 04:48:29;;;;;;;5.25;3.15;;;;;;;3.48;52.62;101925.59;4958426;29;20113;-68
2024/01/21 04:50:56;;;;;;;6.57;3.55;;;;;;;3.50;53.09;101910.34;4963201;29;20397;-67
2024/01/21 04:53:24;;;;;;;6.80;3.60;;;;;;;3.49;52.91;101914.00;4957587;28;20079;-68
2024/01/21 04:55:55;;;;;;;7.00;3.78;;;;;;;3.51;53.38;101896.06;4965981;29;20047;-68
2024/01/21 04:58:22;;;;;;;6.68;4.05;;;;;;;3.54;52.61;101871.84;4951272;29;20051;-68
2024/01/21 05:00:52;;;;;;;6.13;3.45;;;;;;;3.52;53.21;101880.97;4961038;29;20055;-67
2024/01/21 05:03:20;;;;;;;6.97;4.05;;;;;;;3.52;52.41;101867.69;4963900;29;20055;-68
2024/01/21 05:05:48;;;;;;;5.47;3.40;;;;;;;3.53;52.62;101864.88;4961221;29;20099;-68
2024/01/21 05:08:20;;;;;;;6.47;4.05;;;;;;;3.52;52.78;101857.88;4964088;29;20047;-68
2024/01/21 05:10:47;;;;;;;9.23;3.80;;;;;;;3.52;52.87;101862.38;4966198;29;20047;-68
2024/01/21 05:13:15;;;;;;;7.95;3.70;;;;;;;3.52;52.71;101871.16;4960614;28;20086;-68
2024/01/21 05:15:44;;;;;;;7.55;3.63;;;;;;;3.54;52.28;101866.53;4965521;29;20050;-67
2024/01/21 05:18:13;;;;;;;7.57;4.18;;;;;;;3.55;52.48;101862.91;4965340;29;20058;-67
2024/01/21 05:20:41;;;;;;;6.18;3.67;;;;;;;3.57;52.00;101870.72;4960697;29;20139;-67
2024/01/21 05:23:09;;;;;;;6.93;4.03;;;;;;;3.55;52.27;101896.59;4965150;29;20058;-67
2024/01/21 05:25:37;;;;;;;6.35;3.55;;;;;;;3.53;52.72;101888.78;4978922;28;20063;-67
2024/01/21 05:28:05;;;;;;;5.90;3.80;;;;;;;3.54;52.69;101890.47;4965262;29;20498;-67
2024/01/21 05:30:33;;;;;;;7.18;3.70;;;;;;;3.54;52.05;101893.13;4965438;29;20055;-67
2024/01/21 05:33:01;;;;;;;6.85;4.18;;;;;;;3.54;53.00;101873.69;4959806;28;20052;-67
2024/01/21 05:35:30;;;;;;;10.48;4.93;;;;;;;3.53;52.86;101861.38;4965456;29;20445;-68
2024/01/21 05:37:58;;;;;;;8.18;4.72;;;;;;;3.55;52.40;101873.53;4614259;28;10000597;-68
2024/01/21 05:40:26;;;;;;;7.25;4.28;;;;;;;3.56;52.20;101877.03;4961859;29;20051;-68
2024/01/21 05:42:54;;;;;;;9.73;4.75;;;;;;;3.50;52.68;101881.13;4961478;29;20059;-68
2024/01/21 05:45:22;;;;;;;9.70;4.68;;;;;;;3.55;52.68;101888.63;4953604;29;20099;-68
2024/01/21 05:47:50;;;;;;;6.45;3.85;;;;;;;3.55;51.94;101870.88;4953009;29;20063;-68
2024/01/21 05:50:18;;;;;;;7.78;4.18;;;;;;;3.55;52.70;101875.34;4974049;28;20055;-68
2024/01/21 05:52:47;;;;;;;6.50;3.83;;;;;;;3.54;52.85;101871.84;4960147;28;20051;-68
2024/01/21 05:55:15;;;;;;;9.07;4.80;;;;;;;3.55;52.38;101865.56;4967450;28;20051;-68
2024/01/21 05:57:42;;;;;;;8.23;4.43;;;;;;;3.55;52.17;101870.88;4960268;28;20047;-68
2024/01/21 06:00:12;;;;;;;7.53;4.35;;;;;;;3.54;52.90;101866.53;4965717;28;20075;-69
2024/01/21 06:02:41;;;;;;;6.85;4.53;;;;;;;3.57;52.48;101866.22;4973416;28;20050;-69
2024/01/21 06:05:09;;;;;;;8.38;4.70;;;;;;;3.68;53.10;101874.97;4959636;28;20051;-68
2024/01/21 06:07:37;;;;;;;8.38;4.50;;;;;;;3.84;51.98;101880.44;4955111;28;20098;-68
2024/01/21 06:10:08;;;;;;;6.68;4.03;;;;;;;4.00;51.24;101877.09;4951008;28;20320;-68
2024/01/21 06:12:36;;;;;;;9.75;4.78;;;;;;;4.16;51.06;101861.25;4958600;29;20488;-67
2024/01/21 06:15:05;;;;;;;6.65;4.38;;;;;;;4.29;51.04;101864.34;4961160;29;20055;-67
2024/01/21 06:17:33;;;;;;;8.68;4.47;;;;;;;4.46;50.16;101851.97;4958337;29;20055;-67
2024/01/21 06:20:01;;;;;;;9.60;4.35;;;;;;;4.59;50.14;101868.38;4959350;29;20468;-67
2024/01/21 06:22:31;;;;;;;8.90;4.70;;;;;;;4.72;49.45;101874.09;4960883;29;20089;-68
2024/01/21 06:24:59;;;;;;;7.57;4.20;;;;;;;4.86;48.91;101881.50;4959588;29;20059;-68
2024/01/21 06:27:28;;;;;;;8.70;4.25;;;;;;;5.02;48.88;101878.06;4953560;29;20051;-67
2024/01/21 06:29:56;;;;;;;8.23;4.65;;;;;;;5.14;48.76;101878.63;4960676;29;20051;-67
2024/01/21 06:32:24;;;;;;;6.28;3.75;;;;;;;5.22;48.44;101890.09;4959544;29;20074;-68
2024/01/21 06:34:52;;;;;;;11.48;4.97;;;;;;;5.34;47.98;101887.97;4958774;29;20086;-67
2024/01/21 06:37:20;;;;;;;7.78;4.25;;;;;;;5.38;48.13;101897.31;4958816;28;20112;-67
2024/01/21 06:39:47;;;;;;;8.05;4.35;;;;;;;5.43;47.96;101896.84;4959899;29;20130;-68
2024/01/21 06:42:29;;;;;;;7.50;4.43;;;;;;;5.44;47.53;101887.84;4957911;29;20055;-67
2024/01/21 06:44:57;;;;;;;7.80;4.70;;;;;;;5.45;47.94;101884.19;4963847;28;20051;-68
2024/01/21 06:47:25;;;;;;;8.32;4.80;;;;;;;5.47;47.73;101895.50;4960991;28;20082;-67
2024/01/21 06:49:53;;;;;;;6.90;4.32;;;;;;;5.46;47.61;101894.69;4959224;29;20055;-67
2024/01/21 06:52:23;;;;;;;9.80;5.47;;;;;;;5.43;47.95;101895.00;4962936;29;20071;-67
2024/01/21 06:54:51;;;;;;;8.35;4.35;;;;;;;5.30;47.83;101899.97;4952932;29;20118;-67
2024/01/21 06:57:19;;;;;;;7.70;4.82;;;;;;;5.12;48.45;101900.09;4937076;29;20086;-69
2024/01/21 06:59:50;;;;;;;6.20;4.15;;;;;;;4.94;48.67;101896.69;4941869;29;20047;-68
2024/01/21 07:02:18;;;;;;;7.15;4.13;;;;;;;4.79;49.22;101900.94;4943722;29;20044;-67
2024/01/21 07:04:45;;;;;;;7.78;4.68;;;;;;;4.65;50.00;101894.38;4945706;29;20051;-67
2024/01/21 07:07:13;;;;;;;8.95;5.28;;;;;;;4.60;50.08;101885.19;4944517;29;20091;-66
2024/01/21 07:09:42;;;;;;;7.95;4.65;;;;;;;4.68;50.23;101891.38;4942002;29;20052;-66
2024/01/21 07:12:09;;;;;;;8.20;4.45;;;;;;;4.64;50.88;101876.72;4943660;29;20062;-67
2024/01/21 07:14:37;;;;;;;8.45;4.53;;;;;;;4.69;50.28;101868.25;4944905;29;20166;-66
2024/01/21 07:17:06;;;;;;;7.30;4.45;;;;;;;4.55;50.54;101851.88;4946725;29;20070;-66
2024/01/21 07:19:34;;;;;;;8.05;5.05;;;;;;;4.48;51.25;101853.50;4943983;29;20073;-67
2024/01/21 07:22:02;;;;;;;7.97;4.40;;;;;;;4.55;51.07;101867.84;4944088;29;20058;-68
2024/01/21 07:24:30;;;;;;;6.90;4.18;;;;;;;4.45;50.64;101858.31;4945319;29;20123;-67
2024/01/21 07:26:58;;;;;;;9.25;4.72;;;;;;;4.35;51.29;101849.59;4943859;29;20052;-65
2024/01/21 07:29:26;;;;;;;6.90;4.07;;;;;;;4.39;51.45;101850.94;4937946;29;20040;-67
2024/01/21 07:31:54;;;;;;;7.20;4.22;;;;;;;4.35;51.06;101838.94;4941576;29;20082;-66
2024/01/21 07:34:23;;;;;;;7.10;3.95;;;;;;;4.49;49.70;101841.03;4945320;29;20059;-67
2024/01/21 07:36:51;;;;;;;9.23;4.57;;;;;;;4.68;49.48;101831.97;4943268;29;20055;-65
2024/01/21 07:39:19;;;;;;;7.55;4.18;;;;;;;4.82;49.45;101850.00;4941457;29;20067;-64
2024/01/21 07:41:48;;;;;;;6.82;3.92;;;;;;;4.98;49.14;101838.59;4942825;29;20482;-69
2024/01/21 07:44:15;;;;;;;8.43;4.13;;;;;;;5.07;49.25;101835.78;4939524;29;20154;-64
2024/01/21 07:46:43;;;;;;;7.65;4.68;;;;;;;5.39;48.57;101844.84;4938087;29;20048;-67
2024/01/21 07:49:11;;;;;;;6.43;4.22;;;;;;;5.51;48.18;101848.88;4941071;29;20056;-68
2024/01/21 07:51:40;;;;;;;6.88;4.00;;;;;;;5.65;48.66;101856.22;4943471;29;20062;-67
2024/01/21 07:54:08;;;;;;;6.03;3.63;;;;;;;5.72;47.97;101840.41;4944932;29;20048;-67
2024/01/21 07:56:36;;;;;;;7.35;3.90;;;;;;;5.74;47.64;101843.72;4942157;29;20052;-68
2024/01/21 07:59:04;;;;;;;8.60;4.18;;;;;;;5.77;47.85;101864.75;4942561;29;20044;-67
2024/01/21 08:01:32;;;;;;;7.03;4.22;;;;;;;5.96;47.70;101883.13;4938776;29;20075;-67
2024/01/21 08:03:59;;;;;;;7.32;4.30;;;;;;;5.87;46.73;101876.09;4943762;29;20052;-67
2024/01/21 08:06:27;;;;;;;8.13;4.28;;;;;;;5.77;47.22;101888.75;4944840;29;20074;-67
2024/01/21 08:08:57;;;;;;;7.57;4.40;;;;;;;5.66;48.26;101897.06;4943878;29;20442;-67
2024/01/21 08:11:24;;;;;;;6.95;4.47;;;;;;;5.54;48.12;101910.69;4938846;29;20446;-67
2024/01/21 08:13:52;;;;;;;6.28;3.95;;;;;;;5.35;48.42;101921.63;4943863;29;20111;-67
2024/01/21 08:16:20;;;;;;;8.57;4.28;;;;;;;5.19;48.83;101927.78;4945496;29;20055;-67
2024/01/21 08:18:48;;;;;;;6.72;3.80;;;;;;;5.04;48.82;101937.34;4931311;29;20051;-65
2024/01/21 08:21:16;;;;;;;6.80;4.53;;;;;;;4.96;49.71;101937.31;4940994;29;20055;-66
2024/01/21 08:23:44;;;;;;;7.22;4.00;;;;;;;4.87;49.43;101939.09;4944630;29;20063;-64
2024/01/21 08:26:13;;;;;;;7.13;4.25;;;;;;;4.81;50.19;101937.06;4940012;29;20095;-68
2024/01/21 08:28:41;;;;;;;7.45;4.13;;;;;;;4.75;50.76;101951.00;4940092;29;20052;-65
2024/01/21 08:31:08;;;;;;;6.57;3.88;;;;;;;4.72;51.12;101948.66;4936793;29;20056;-68
2024/01/21 08:33:36;;;;;;;6.85;3.78;;;;;;;4.68;50.43;101949.97;4949278;29;20097;-67
2024/01/21 08:36:05;;;;;;;7.88;3.75;;;;;;;4.62;51.10;101952.41;4945674;29;20122;-67
2024/01/21 08:38:33;;;;;;;7.03;4.35;;;;;;;4.58;51.56;101946.56;4945613;29;20047;-67
2024/01/21 08:41:00;;;;;;;6.88;3.55;;;;;;;4.57;51.70;101947.56;4937663;29;20052;-66
2024/01/21 08:43:29;;;;;;;7.85;4.18;;;;;;;4.60;51.64;101943.75;4942288;29;20115;-66
2024/01/21 08:45:57;;;;;;;5.68;3.75;;;;;;;4.53;50.86;101946.19;4948332;29;20043;-66
2024/01/21 08:48:26;;;;;;;6.30;3.50;;;;;;;4.55;51.87;101937.06;4943522;29;20087;-67
2024/01/21 08:50:55;;;;;;;5.50;3.55;;;;;;;4.52;51.61;101925.88;4939930;29;20050;-66
2024/01/21 08:53:23;;;;;;;9.60;3.95;;;;;;;4.56;51.76;101922.75;4940631;29;20056;-66
2024/01/21 08:55:51;;;;;;;9.45;4.53;;;;;;;4.68;52.64;101919.84;4934898;29;20107;-66
2024/01/21 08:58:18;;;;;;;5.80;3.47;;;;;;;4.60;51.98;101930.44;4936451;29;20118;-66
2024/01/21 09:00:48;;;;;;;7.68;4.20;;;;;;;4.53;52.51;101944.38;4942159;29;20051;-66
2024/01/21 09:03:16;;;;;;;6.80;3.65;;;;;;;4.65;52.23;101930.81;4942387;29;20142;-65
2024/01/21 09:05:44;;;;;;;7.18;3.67;;;;;;;4.60;51.88;101952.56;4937203;29;20118;-64
2024/01/21 09:08:12;;;;;;;7.07;4.07;;;;;;;4.54;52.23;101939.88;4937616;29;20126;-65
2024/01/21 09:10:40;;;;;;;10.10;4.00;;;;;;;4.55;53.00;101950.38;4942951;29;20068;-66
2024/01/21 09:13:08;;;;;;;5.85;3.63;;;;;;;4.51;52.88;101953.50;4941296;29;20060;-68
2024/01/21 09:15:36;;;;;;;8.57;4.13;;;;;;;4.48;52.48;101954.66;4942378;29;20047;-64
2024/01/21 09:18:05;;;;;;;6.82;3.65;;;;;;;4.48;53.56;101959.97;4943577;29;20115;-63
2024/01/21 09:20:34;;;;;;;7.30;4.10;;;;;;;4.41;53.57;101945.59;4936765;29;20079;-64
2024/01/21 09:23:01;;;;;;;7.55;3.85;;;;;;;4.47;53.47;101952.97;4943574;29;20054;-65
2024/01/21 09:25:29;;;;;;;8.60;4.32;;;;;;;4.49;53.84;101964.31;4939752;29;20532;-66
2024/01/21 09:27:57;;;;;;;6.93;3.70;;;;;;;4.54;54.27;101970.00;4942387;29;20126;-64
2024/01/21 09:30:25;;;;;;;6.75;3.65;;;;;;;4.49;54.06;101982.94;4942886;29;20051;-64
2024/01/21 09:32:53;;;;;;;5.07;3.45;;;;;;;4.54;53.74;101990.47;4939927;29;20075;-65
2024/01/21 09:35:22;;;;;;;6.43;3.33;;;;;;;4.76;53.68;101968.66;4943206;29;20060;-64
2024/01/21 09:37:50;;;;;;;6.25;3.55;;;;;;;4.90;53.26;101972.56;4943885;29;20126;-66
2024/01/21 09:40:18;;;;;;;7.15;3.53;;;;;;;5.03;53.13;101996.97;4939082;29;20075;-69
2024/01/21 09:42:46;;;;;;;7.68;3.65;;;;;;;5.19;52.65;101999.72;4944123;29;20055;-67
2024/01/21 09:45:14;;;;;;;5.93;3.40;;;;;;;5.37;52.63;101991.63;4941196;29;20055;-64
2024/01/21 09:47:44;;;;;;;6.97;2.78;;;;;;;5.50;52.53;101996.50;4941715;29;20079;-64
2024/01/21 09:50:13;;;;;;;5.75;3.50;;;;;;;5.48;52.35;101987.84;4948478;29;20070;-64
2024/01/21 09:52:43;;;;;;;5.95;3.55;;;;;;;5.46;52.67;101998.66;4940792;29;20059;-64
2024/01/21 09:55:11;;;;;;;7.93;3.95;;;;;;;5.41;52.86;101989.47;4941710;29;20501;-61
2024/01/21 09:57:40;;;;;;;8.73;4.28;;;;;;;5.33;53.19;101990.28;4939390;29;20048;-67
2024/01/21 10:00:11;;;;;;;7.38;4.25;;;;;;;5.30;53.88;101989.75;4941019;29;20056;-62
2024/01/21 10:02:41;;;;;;;8.65;4.10;;;;;;;5.20;53.81;101993.38;4937435;29;20051;-61
2024/01/21 10:05:10;;;;;;;16.13;4.15;;;;;;;5.11;54.35;101989.03;4938498;29;20052;-61
2024/01/21 10:07:39;;;;;;;5.47;3.33;;;;;;;5.13;55.29;101984.38;4936611;29;20540;-62
2024/01/21 10:10:12;;;;;;;6.55;4.03;;;;;;;5.15;54.80;101994.88;4941759;29;20039;-64
2024/01/21 10:12:42;;;;;;;6.47;3.17;;;;;;;5.07;55.23;101989.50;4941006;29;20048;-65
2024/01/21 10:15:14;;;;;;;8.98;4.70;;;;;;;4.97;55.59;101978.94;4940946;29;20051;-62
2024/01/21 10:17:43;;;;;;;8.98;4.18;;;;;;;4.89;55.69;101978.91;4941275;29;20056;-63
2024/01/21 10:20:12;;;;;;;9.93;4.57;;;;;;;4.84;56.31;101971.38;4941760;29;20044;-63
2024/01/21 10:22:41;;;;;;;8.57;4.10;;;;;;;4.81;56.39;101968.19;4940565;29;20062;-62
2024/01/21 10:25:14;;;;;;;8.98;4.22;;;;;;;4.76;56.74;101967.81;4936966;29;20070;-63
2024/01/21 10:27:46;;;;;;;6.57;3.90;;;;;;;4.71;56.99;101970.94;4940796;29;20345;-63
2024/01/21 10:30:14;;;;;;;7.95;4.38;;;;;;;4.69;57.10;101972.94;4939547;29;20420;-63
2024/01/21 10:32:43;;;;;;;8.27;4.00;;;;;;;4.67;57.01;101964.25;4937744;29;20048;-63
2024/01/21 10:35:11;;;;;;;8.40;4.10;;;;;;;4.63;57.18;101965.56;4941787;29;20055;-63
2024/01/21 10:37:41;;;;;;;6.90;3.95;;;;;;;4.63;56.90;101951.41;4940425;29;20055;-63
2024/01/21 10:40:11;;;;;;;13.10;4.78;;;;;;;4.62;56.92;101949.75;4935891;29;20244;-64
2024/01/21 10:42:40;;;;;;;8.73;4.07;;;;;;;4.62;57.25;101934.63;4938575;29;20056;-63
2024/01/21 10:45:10;;;;;;;8.02;4.30;;;;;;;4.60;56.64;101928.59;4940031;29;20064;-62
2024/01/21 10:47:41;;;;;;;8.18;4.07;;;;;;;4.65;56.66;101928.13;4940615;29;20127;-63
2024/01/21 10:50:11;;;;;;;7.28;4.60;;;;;;;4.71;56.84;101923.03;4940867;29;20052;-62
2024/01/21 10:52:44;;;;;;;7.82;3.90;;;;;;;4.89;56.03;101926.47;4934397;29;20083;-61
2024/01/21 10:55:13;;;;;;;7.43;3.90;;;;;;;5.08;56.18;101920.06;4954137;28;20663;-63
2024/01/21 10:57:42;;;;;;;5.80;3.60;;;;;;;5.27;55.02;101916.28;4956593;28;20048;-63
2024/01/21 11:00:11;;;;;;;7.55;4.63;;;;;;;5.40;55.12;101915.81;4960825;29;20051;-62
2024/01/21 11:02:39;;;;;;;6.88;4.28;;;;;;;5.56;54.53;101910.53;4956627;29;20106;-63
2024/01/21 11:05:07;;;;;;;6.05;3.90;;;;;;;5.68;54.33;101917.22;4955728;29;20051;-62
2024/01/21 11:07:38;;;;;;;7.18;4.20;;;;;;;5.83;53.57;101902.25;4950170;29;20433;-63
2024/01/21 11:10:07;;;;;;;7.30;4.13;;;;;;;5.85;53.74;101899.44;4956909;29;20098;-61
2024/01/21 11:12:37;;;;;;;11.20;4.82;;;;;;;5.76;53.75;101905.75;4956781;29;20047;-61
2024/01/21 11:15:35;;;;;;;7.63;4.22;;;;;;;5.62;54.33;101909.88;4962266;28;20051;-64
2024/01/21 11:18:11;;;;;;;7.95;4.03;;;;;;;5.55;54.68;101909.69;4914053;29;20227;-63
2024/01/21 11:20:40;;;;;;;7.80;4.07;;;;;;;5.46;55.13;101923.19;4921046;29;20056;-62
2024/01/21 11:23:15;;;;;;;7.32;4.05;;;;;;;5.45;55.13;101916.19;4918876;29;20494;-62
2024/01/21 11:25:50;;;;;;;8.00;4.07;;;;;;;5.39;54.95;101909.66;4922494;29;20140;-63
2024/01/21 11:28:28;;;;;;;5.88;3.58;;;;;;;5.32;55.42;101910.47;4916833;29;20063;-64
2024/01/21 11:31:03;;;;;;;11.90;4.95;;;;;;;5.32;55.70;101919.28;4924100;29;20040;-63
2024/01/21 11:33:31;;;;;;;8.80;4.35;;;;;;;5.29;55.47;101935.59;4926779;29;20108;-63
2024/01/21 11:36:00;;;;;;;6.32;3.95;;;;;;;5.25;56.02;101936.94;4928308;29;20398;-63
2024/01/21 11:38:29;;;;;;;7.57;3.92;;;;;;;5.18;55.99;101927.94;4922723;29;20052;-63